Agia Trias — SV5984 — position and weather

sailwx.info

Track history (hours):
 
Tides and Currents Weather Stations Pressure Air Temp Water Temp Dewpoint Dewpoint Depression Visibility Wind Speed Wind Dir Waves Ship Positions

Agia Trias

Last reported at 2017-Sep-20 22:35 UTC. Time now 2017-Sep-24 15:56 UTC.
Position N 40°23' E 023°59'.

Length 28 m; draft 3.6 m.

Type: Fishing. MMSI: 237918000.

Date/timePositionNaut miles runAvg speedWind from/ knotsBaromVisibWave heightAir tempDewpointWater temp
2017-Sep-20 22:35N 40°23' E 023°59'1 6.5
2017-Sep-20 22:28N 40°24' E 023°60'9 8.1
2017-Sep-20 21:20N 40°33' E 024°01'0 0.7
2017-Sep-20 20:48N 40°33' E 024°00'0 0.5
2017-Sep-20 19:53N 40°33' E 024°01'0 0.1
2017-Sep-20 18:10N 40°33' E 024°01'0 0.9
2017-Sep-20 18:00N 40°33' E 024°01'11 0.7
2017-Sep-20 02:46N 40°23' E 023°56'9 6.6
2017-Sep-20 01:24N 40°31' E 024°00'0 0.1
2017-Sep-19 23:41N 40°31' E 024°00'0 0.4
2017-Sep-19 23:31N 40°31' E 024°00'3 5.8
2017-Sep-19 22:55N 40°28' E 023°59'5 9.9
2017-Sep-19 22:24N 40°23' E 023°56'2 3.1
2017-Sep-19 21:39N 40°26' E 023°58'1 4.2
2017-Sep-19 21:29N 40°26' E 023°58'5 9.4
2017-Sep-19 20:55N 40°31' E 024°00'1 2.1
2017-Sep-19 20:30N 40°32' E 024°01'0 0.3
2017-Sep-19 20:01N 40°32' E 024°01'0 0.3
2017-Sep-19 19:27N 40°32' E 024°01'0 0.1
2017-Sep-19 18:58N 40°32' E 024°01'0 0.0
2017-Sep-19 18:29N 40°32' E 024°01'0 0.0
2017-Sep-19 18:00N 40°32' E 024°01'3 0.2
2017-Sep-18 21:16N 40°29' E 023°60'3 9.9
2017-Sep-18 21:00N 40°31' E 024°01'3 5.2
2017-Sep-18 20:30N 40°33' E 024°03'0 0.3
2017-Sep-18 20:00N 40°33' E 024°03'0 0.1
2017-Sep-18 19:29N 40°33' E 024°03'0 0.5
2017-Sep-18 19:00N 40°33' E 024°03'0 0.0
2017-Sep-18 18:30N 40°33' E 024°03'0 0.7
2017-Sep-18 18:00N 40°33' E 024°03'1 2.6
2017-Sep-18 17:30N 40°31' E 024°04'3 5.4
2017-Sep-18 17:00N 40°29' E 024°04'4 9.0
2017-Sep-18 16:30N 40°26' E 023°58'4 7.9
2017-Sep-18 16:00N 40°23' E 023°56'0 0.1
2017-Sep-18 15:30N 40°23' E 023°56'0 0.0
2017-Sep-18 15:00N 40°23' E 023°56'0 0.0
2017-Sep-18 14:30N 40°23' E 023°56'0 0.0
2017-Sep-18 14:00N 40°23' E 023°56'0 0.0
2017-Sep-18 13:30N 40°23' E 023°56'0 0.0
2017-Sep-18 13:00N 40°23' E 023°56'0 0.0
2017-Sep-18 12:30N 40°23' E 023°56'0 0.0
2017-Sep-18 12:00N 40°23' E 023°56'0 0.0
2017-Sep-18 11:30N 40°23' E 023°56'0 0.0
2017-Sep-18 11:00N 40°23' E 023°56'0 0.0
2017-Sep-18 10:30N 40°23' E 023°56'0 0.0
2017-Sep-18 10:00N 40°23' E 023°56'0 0.0
2017-Sep-18 09:30N 40°23' E 023°56'0 0.0
2017-Sep-18 09:00N 40°23' E 023°56'0 0.0
2017-Sep-18 08:30N 40°23' E 023°56'0 0.0
2017-Sep-18 08:00N 40°23' E 023°56'0 0.0
2017-Sep-18 07:30N 40°23' E 023°56'0 0.0
2017-Sep-18 07:00N 40°23' E 023°56'0 0.0
2017-Sep-18 06:30N 40°23' E 023°56'0 0.0
2017-Sep-18 06:00N 40°23' E 023°56'0 0.0
2017-Sep-18 05:30N 40°23' E 023°56'0 0.0
2017-Sep-18 05:00N 40°23' E 023°56'2 3.1
2017-Sep-18 04:21N 40°25' E 023°57'3 9.6
2017-Sep-18 04:00N 40°27' E 024°00'7 9.4
2017-Sep-18 03:18N 40°31' E 024°07'0 0.2
2017-Sep-18 03:00N 40°31' E 024°07'0 0.1
2017-Sep-18 02:30N 40°31' E 024°07'0 0.2
2017-Sep-18 02:00N 40°31' E 024°07'0 0.6
2017-Sep-18 01:30N 40°31' E 024°07'0 0.2
2017-Sep-18 00:53N 40°31' E 024°07'2 4.4
2017-Sep-18 00:30N 40°30' E 024°06'4 8.9
2017-Sep-18 00:00N 40°28' E 024°00'5 9.6
2017-Sep-17 23:30N 40°24' E 023°56'0 0.7
2017-Sep-17 23:00N 40°24' E 023°56'5 8.3
2017-Sep-17 22:27N 40°27' E 023°60'2 5.0
2017-Sep-17 22:00N 40°29' E 024°02'4 8.6
2017-Sep-17 21:30N 40°31' E 024°07'0 0.5
2017-Sep-17 21:00N 40°31' E 024°07'0 0.1
2017-Sep-17 20:30N 40°31' E 024°07'0 0.4
2017-Sep-17 20:00N 40°31' E 024°07'0 0.5
2017-Sep-17 19:30N 40°31' E 024°07'0 0.9
2017-Sep-17 19:00N 40°31' E 024°07'0 0.7
2017-Sep-17 18:30N 40°31' E 024°08'0 0.7
2017-Sep-17 18:00N 40°31' E 024°07'1 2.1
2017-Sep-17 17:30N 40°30' E 024°07'4 8.5
2017-Sep-17 17:00N 40°28' E 024°02'3 5.1
2017-Sep-17 16:30N 40°26' E 023°60'3 5.6
2017-Sep-17 16:00N 40°24' E 023°57'2 3.1
2017-Sep-17 15:30N 40°23' E 023°56'0 0.0
2017-Sep-17 15:00N 40°23' E 023°56'0 0.0
2017-Sep-17 14:30N 40°23' E 023°56'0 0.0
2017-Sep-17 14:00N 40°23' E 023°56'0 0.0
2017-Sep-17 13:30N 40°23' E 023°56'0 0.0
2017-Sep-17 13:00N 40°23' E 023°56'0 0.0
2017-Sep-17 12:30N 40°23' E 023°56'0 0.0
2017-Sep-17 12:00N 40°23' E 023°56'0 0.0
2017-Sep-17 11:30N 40°23' E 023°56'0 0.0
2017-Sep-17 11:00N 40°23' E 023°56'0 0.0
2017-Sep-17 10:30N 40°23' E 023°56'0 0.0
2017-Sep-17 10:00N 40°23' E 023°56'0 0.0
2017-Sep-17 09:30N 40°23' E 023°56'0 0.0
2017-Sep-17 09:00N 40°23' E 023°56'0 0.0
2017-Sep-17 08:30N 40°23' E 023°56'0 0.0
2017-Sep-17 08:00N 40°23' E 023°56'0 0.0
2017-Sep-17 07:30N 40°23' E 023°56'0 0.0
2017-Sep-17 07:00N 40°23' E 023°56'0 0.0
2017-Sep-17 06:30N 40°23' E 023°56'0 0.0
2017-Sep-17 06:00N 40°23' E 023°56'0 0.0
2017-Sep-17 05:30N 40°23' E 023°56'0 0.0
2017-Sep-17 05:00N 40°23' E 023°56'2 3.3
2017-Sep-17 04:30N 40°24' E 023°57'5 9.3
2017-Sep-17 04:00N 40°28' E 024°02'5 9.8
2017-Sep-17 03:30N 40°26' E 024°08'0 0.6
2017-Sep-17 03:00N 40°26' E 024°08'0 0.2
2017-Sep-17 02:30N 40°26' E 024°08'0 0.6
2017-Sep-17 02:00N 40°25' E 024°08'0 0.9
2017-Sep-17 01:30N 40°26' E 024°08'0 0.1
2017-Sep-17 00:56N 40°26' E 024°08'0 0.0
2017-Sep-17 00:30N 40°26' E 024°08'0 0.0
2017-Sep-17 00:00N 40°26' E 024°08'0 0.0
2017-Sep-16 23:30N 40°26' E 024°08'0 0.0
2017-Sep-16 23:00N 40°26' E 024°08'0 0.0
2017-Sep-16 22:30N 40°26' E 024°08'0 0.0
2017-Sep-16 22:00N 40°26' E 024°08'0 0.0
2017-Sep-16 21:30N 40°26' E 024°08'0 0.0
2017-Sep-16 21:00N 40°26' E 024°08'0 0.0
2017-Sep-16 20:30N 40°26' E 024°08'0 0.0
2017-Sep-16 20:00N 40°26' E 024°08'0 0.0
2017-Sep-16 19:30N 40°26' E 024°08'0 0.0
2017-Sep-16 19:00N 40°26' E 024°08'0 0.0
2017-Sep-16 18:30N 40°26' E 024°08'0 0.0
2017-Sep-16 18:00N 40°26' E 024°08'0 0.4
2017-Sep-16 17:30N 40°25' E 024°08'3 5.2
2017-Sep-16 17:00N 40°27' E 024°05'4 8.1
2017-Sep-16 16:30N 40°27' E 023°60'4 8.9
2017-Sep-16 16:00N 40°23' E 023°56'1 1.0
2017-Sep-16 15:30N 40°23' E 023°56'0 0.0
2017-Sep-16 15:00N 40°23' E 023°56'0 0.0
2017-Sep-16 14:30N 40°23' E 023°56'0 0.0
2017-Sep-16 14:00N 40°23' E 023°56'0 0.0
2017-Sep-16 13:30N 40°23' E 023°56'0 0.0
2017-Sep-16 13:00N 40°23' E 023°56'0 0.0
2017-Sep-16 12:30N 40°23' E 023°56'0 0.0
2017-Sep-16 12:00N 40°23' E 023°56'0 0.0
2017-Sep-16 11:30N 40°23' E 023°56'0 0.0
2017-Sep-16 11:00N 40°23' E 023°56'0 0.0
2017-Sep-16 10:30N 40°23' E 023°56'0 0.0
2017-Sep-16 10:00N 40°23' E 023°56'0 0.0
2017-Sep-16 09:21N 40°23' E 023°56'0 0.0
2017-Sep-16 08:49N 40°23' E 023°56'0 0.0
2017-Sep-16 08:25N 40°23' E 023°56'0 0.0
2017-Sep-16 07:59N 40°23' E 023°56'0 0.0
2017-Sep-16 07:29N 40°23' E 023°56'0 0.0
2017-Sep-16 06:18N 40°23' E 023°56'0 0.0
2017-Sep-16 06:00N 40°23' E 023°56'0 0.0
2017-Sep-16 05:30N 40°23' E 023°56'0 0.0
2017-Sep-16 04:51N 40°23' E 023°56'7 5.6
2017-Sep-16 03:33N 40°27' E 024°04'1 9.8
2017-Sep-16 03:26N 40°26' E 024°05'2 3.4
2017-Sep-16 02:47N 40°26' E 024°08'0 0.3
2017-Sep-16 01:59N 40°26' E 024°08'0 0.3
2017-Sep-16 00:38N 40°25' E 024°09'1 2.2
2017-Sep-16 00:15N 40°26' E 024°08'2 9.5
2017-Sep-16 00:00N 40°27' E 024°05'7 7.9
2017-Sep-15 23:10N 40°25' E 023°57'2 5.3
2017-Sep-15 22:50N 40°23' E 023°56'1 3.1
2017-Sep-15 22:28N 40°24' E 023°57'4 9.5
2017-Sep-15 22:00N 40°27' E 024°00'5 9.6
2017-Sep-15 21:30N 40°27' E 024°07'1 2.9
2017-Sep-15 21:00N 40°26' E 024°08'0 0.2
2017-Sep-15 20:28N 40°26' E 024°08'0 0.4
2017-Sep-15 20:00N 40°26' E 024°08'0 0.4
2017-Sep-15 19:30N 40°26' E 024°08'0 0.0
2017-Sep-15 19:00N 40°26' E 024°08'0 0.0
2017-Sep-15 18:30N 40°26' E 024°08'  
Track history (hours):
 
Tides and Currents Weather Stations Pressure Air Temp Water Temp Dewpoint Dewpoint Depression Visibility Wind Speed Wind Dir Waves Ship Positions

Agia Trias

Last reported at 2017-Sep-20 22:35 UTC. Time now 2017-Sep-24 15:56 UTC.
Position N 40°23' E 023°59'.

Length 28 m; draft 3.6 m.

Type: Fishing. MMSI: 237918000.

Date/timePositionNaut miles runAvg speedWind from/ knotsBaromVisibWave heightAir tempDewpointWater temp
2017-Sep-20 22:35N 40°23' E 023°59'1 6.5
2017-Sep-20 22:28N 40°24' E 023°60'9 8.1
2017-Sep-20 21:20N 40°33' E 024°01'0 0.7
2017-Sep-20 20:48N 40°33' E 024°00'0 0.5
2017-Sep-20 19:53N 40°33' E 024°01'0 0.1
2017-Sep-20 18:10N 40°33' E 024°01'0 0.9
2017-Sep-20 18:00N 40°33' E 024°01'11 0.7
2017-Sep-20 02:46N 40°23' E 023°56'9 6.6
2017-Sep-20 01:24N 40°31' E 024°00'0 0.1
2017-Sep-19 23:41N 40°31' E 024°00'0 0.4
2017-Sep-19 23:31N 40°31' E 024°00'3 5.8
2017-Sep-19 22:55N 40°28' E 023°59'5 9.9
2017-Sep-19 22:24N 40°23' E 023°56'2 3.1
2017-Sep-19 21:39N 40°26' E 023°58'1 4.2
2017-Sep-19 21:29N 40°26' E 023°58'5 9.4
2017-Sep-19 20:55N 40°31' E 024°00'1 2.1
2017-Sep-19 20:30N 40°32' E 024°01'0 0.3
2017-Sep-19 20:01N 40°32' E 024°01'0 0.3
2017-Sep-19 19:27N 40°32' E 024°01'0 0.1
2017-Sep-19 18:58N 40°32' E 024°01'0 0.0
2017-Sep-19 18:29N 40°32' E 024°01'0 0.0
2017-Sep-19 18:00N 40°32' E 024°01'3 0.2
2017-Sep-18 21:16N 40°29' E 023°60'3 9.9
2017-Sep-18 21:00N 40°31' E 024°01'3 5.2
2017-Sep-18 20:30N 40°33' E 024°03'0 0.3
2017-Sep-18 20:00N 40°33' E 024°03'0 0.1
2017-Sep-18 19:29N 40°33' E 024°03'0 0.5
2017-Sep-18 19:00N 40°33' E 024°03'0 0.0
2017-Sep-18 18:30N 40°33' E 024°03'0 0.7
2017-Sep-18 18:00N 40°33' E 024°03'1 2.6
2017-Sep-18 17:30N 40°31' E 024°04'3 5.4
2017-Sep-18 17:00N 40°29' E 024°04'4 9.0
2017-Sep-18 16:30N 40°26' E 023°58'4 7.9
2017-Sep-18 16:00N 40°23' E 023°56'0 0.1
2017-Sep-18 15:30N 40°23' E 023°56'0 0.0
2017-Sep-18 15:00N 40°23' E 023°56'0 0.0
2017-Sep-18 14:30N 40°23' E 023°56'0 0.0
2017-Sep-18 14:00N 40°23' E 023°56'0 0.0
2017-Sep-18 13:30N 40°23' E 023°56'0 0.0
2017-Sep-18 13:00N 40°23' E 023°56'0 0.0
2017-Sep-18 12:30N 40°23' E 023°56'0 0.0
2017-Sep-18 12:00N 40°23' E 023°56'0 0.0
2017-Sep-18 11:30N 40°23' E 023°56'0 0.0
2017-Sep-18 11:00N 40°23' E 023°56'0 0.0
2017-Sep-18 10:30N 40°23' E 023°56'0 0.0
2017-Sep-18 10:00N 40°23' E 023°56'0 0.0
2017-Sep-18 09:30N 40°23' E 023°56'0 0.0
2017-Sep-18 09:00N 40°23' E 023°56'0 0.0
2017-Sep-18 08:30N 40°23' E 023°56'0 0.0
2017-Sep-18 08:00N 40°23' E 023°56'0 0.0
2017-Sep-18 07:30N 40°23' E 023°56'0 0.0
2017-Sep-18 07:00N 40°23' E 023°56'0 0.0
2017-Sep-18 06:30N 40°23' E 023°56'0 0.0
2017-Sep-18 06:00N 40°23' E 023°56'0 0.0
2017-Sep-18 05:30N 40°23' E 023°56'0 0.0
2017-Sep-18 05:00N 40°23' E 023°56'2 3.1
2017-Sep-18 04:21N 40°25' E 023°57'3 9.6
2017-Sep-18 04:00N 40°27' E 024°00'7 9.4
2017-Sep-18 03:18N 40°31' E 024°07'0 0.2
2017-Sep-18 03:00N 40°31' E 024°07'0 0.1
2017-Sep-18 02:30N 40°31' E 024°07'0 0.2
2017-Sep-18 02:00N 40°31' E 024°07'0 0.6
2017-Sep-18 01:30N 40°31' E 024°07'0 0.2
2017-Sep-18 00:53N 40°31' E 024°07'2 4.4
2017-Sep-18 00:30N 40°30' E 024°06'4 8.9
2017-Sep-18 00:00N 40°28' E 024°00'5 9.6
2017-Sep-17 23:30N 40°24' E 023°56'0 0.7
2017-Sep-17 23:00N 40°24' E 023°56'5 8.3
2017-Sep-17 22:27N 40°27' E 023°60'2 5.0
2017-Sep-17 22:00N 40°29' E 024°02'4 8.6
2017-Sep-17 21:30N 40°31' E 024°07'0 0.5
2017-Sep-17 21:00N 40°31' E 024°07'0 0.1
2017-Sep-17 20:30N 40°31' E 024°07'0 0.4
2017-Sep-17 20:00N 40°31' E 024°07'0 0.5
2017-Sep-17 19:30N 40°31' E 024°07'0 0.9
2017-Sep-17 19:00N 40°31' E 024°07'0 0.7
2017-Sep-17 18:30N 40°31' E 024°08'0 0.7
2017-Sep-17 18:00N 40°31' E 024°07'1 2.1
2017-Sep-17 17:30N 40°30' E 024°07'4 8.5
2017-Sep-17 17:00N 40°28' E 024°02'3 5.1
2017-Sep-17 16:30N 40°26' E 023°60'3 5.6
2017-Sep-17 16:00N 40°24' E 023°57'2 3.1
2017-Sep-17 15:30N 40°23' E 023°56'0 0.0
2017-Sep-17 15:00N 40°23' E 023°56'0 0.0
2017-Sep-17 14:30N 40°23' E 023°56'0 0.0
2017-Sep-17 14:00N 40°23' E 023°56'0 0.0
2017-Sep-17 13:30N 40°23' E 023°56'0 0.0
2017-Sep-17 13:00N 40°23' E 023°56'0 0.0
2017-Sep-17 12:30N 40°23' E 023°56'0 0.0
2017-Sep-17 12:00N 40°23' E 023°56'0 0.0
2017-Sep-17 11:30N 40°23' E 023°56'0 0.0
2017-Sep-17 11:00N 40°23' E 023°56'0 0.0
2017-Sep-17 10:30N 40°23' E 023°56'0 0.0
2017-Sep-17 10:00N 40°23' E 023°56'0 0.0
2017-Sep-17 09:30N 40°23' E 023°56'0 0.0
2017-Sep-17 09:00N 40°23' E 023°56'0 0.0
2017-Sep-17 08:30N 40°23' E 023°56'0 0.0
2017-Sep-17 08:00N 40°23' E 023°56'0 0.0
2017-Sep-17 07:30N 40°23' E 023°56'0 0.0
2017-Sep-17 07:00N 40°23' E 023°56'0 0.0
2017-Sep-17 06:30N 40°23' E 023°56'0 0.0
2017-Sep-17 06:00N 40°23' E 023°56'0 0.0
2017-Sep-17 05:30N 40°23' E 023°56'0 0.0
2017-Sep-17 05:00N 40°23' E 023°56'2 3.3
2017-Sep-17 04:30N 40°24' E 023°57'5 9.3
2017-Sep-17 04:00N 40°28' E 024°02'5 9.8
2017-Sep-17 03:30N 40°26' E 024°08'0 0.6
2017-Sep-17 03:00N 40°26' E 024°08'0 0.2
2017-Sep-17 02:30N 40°26' E 024°08'0 0.6
2017-Sep-17 02:00N 40°25' E 024°08'0 0.9
2017-Sep-17 01:30N 40°26' E 024°08'0 0.1
2017-Sep-17 00:56N 40°26' E 024°08'0 0.0
2017-Sep-17 00:30N 40°26' E 024°08'0 0.0
2017-Sep-17 00:00N 40°26' E 024°08'0 0.0
2017-Sep-16 23:30N 40°26' E 024°08'0 0.0
2017-Sep-16 23:00N 40°26' E 024°08'0 0.0
2017-Sep-16 22:30N 40°26' E 024°08'0 0.0
2017-Sep-16 22:00N 40°26' E 024°08'0 0.0
2017-Sep-16 21:30N 40°26' E 024°08'0 0.0
2017-Sep-16 21:00N 40°26' E 024°08'0 0.0
2017-Sep-16 20:30N 40°26' E 024°08'0 0.0
2017-Sep-16 20:00N 40°26' E 024°08'0 0.0
2017-Sep-16 19:30N 40°26' E 024°08'0 0.0
2017-Sep-16 19:00N 40°26' E 024°08'0 0.0
2017-Sep-16 18:30N 40°26' E 024°08'0 0.0
2017-Sep-16 18:00N 40°26' E 024°08'0 0.4
2017-Sep-16 17:30N 40°25' E 024°08'3 5.2
2017-Sep-16 17:00N 40°27' E 024°05'4 8.1
2017-Sep-16 16:30N 40°27' E 023°60'4 8.9
2017-Sep-16 16:00N 40°23' E 023°56'1 1.0
2017-Sep-16 15:30N 40°23' E 023°56'0 0.0
2017-Sep-16 15:00N 40°23' E 023°56'0 0.0
2017-Sep-16 14:30N 40°23' E 023°56'0 0.0
2017-Sep-16 14:00N 40°23' E 023°56'0 0.0
2017-Sep-16 13:30N 40°23' E 023°56'0 0.0
2017-Sep-16 13:00N 40°23' E 023°56'0 0.0
2017-Sep-16 12:30N 40°23' E 023°56'0 0.0
2017-Sep-16 12:00N 40°23' E 023°56'0 0.0
2017-Sep-16 11:30N 40°23' E 023°56'0 0.0
2017-Sep-16 11:00N 40°23' E 023°56'0 0.0
2017-Sep-16 10:30N 40°23' E 023°56'0 0.0
2017-Sep-16 10:00N 40°23' E 023°56'0 0.0
2017-Sep-16 09:21N 40°23' E 023°56'0 0.0
2017-Sep-16 08:49N 40°23' E 023°56'0 0.0
2017-Sep-16 08:25N 40°23' E 023°56'0 0.0
2017-Sep-16 07:59N 40°23' E 023°56'0 0.0
2017-Sep-16 07:29N 40°23' E 023°56'0 0.0
2017-Sep-16 06:18N 40°23' E 023°56'0 0.0
2017-Sep-16 06:00N 40°23' E 023°56'0 0.0
2017-Sep-16 05:30N 40°23' E 023°56'0 0.0
2017-Sep-16 04:51N 40°23' E 023°56'7 5.6
2017-Sep-16 03:33N 40°27' E 024°04'1 9.8
2017-Sep-16 03:26N 40°26' E 024°05'2 3.4
2017-Sep-16 02:47N 40°26' E 024°08'0 0.3
2017-Sep-16 01:59N 40°26' E 024°08'0 0.3
2017-Sep-16 00:38N 40°25' E 024°09'1 2.2
2017-Sep-16 00:15N 40°26' E 024°08'2 9.5
2017-Sep-16 00:00N 40°27' E 024°05'7 7.9
2017-Sep-15 23:10N 40°25' E 023°57'2 5.3
2017-Sep-15 22:50N 40°23' E 023°56'1 3.1
2017-Sep-15 22:28N 40°24' E 023°57'4 9.5
2017-Sep-15 22:00N 40°27' E 024°00'5 9.6
2017-Sep-15 21:30N 40°27' E 024°07'1 2.9
2017-Sep-15 21:00N 40°26' E 024°08'0 0.2
2017-Sep-15 20:28N 40°26' E 024°08'0 0.4
2017-Sep-15 20:00N 40°26' E 024°08'0 0.4
2017-Sep-15 19:30N 40°26' E 024°08'0 0.0
2017-Sep-15 19:00N 40°26' E 024°08'0 0.0
2017-Sep-15 18:30N 40°26' E 024°08'  

Dump ship's entire track history